HomeShort term forecast

Short term forecast

Graphical weather forecast for the next 48 hours for Montreal:
Short term forecast
This weather forecast is automatically refreshed every 3 hours.

Hourly Experimental Forecast for the next 48 hours

Overall summary: Partly cloudy throughout the day.

 Date & Hour   Temp   Feel   Baro   Hum   Speed & Bearing   Wind Gust   Precip.%   Precip.   Visibility   Cloud cover   Conditions 
 17/06/2019 - 21:00  20.3°C  20.3°C  1015.0 hPa  45%  5.4 km/h   12.4 km/h  0%  --  16.1km  16%  Partly Cloudy 
 17/06/2019 - 22:00  18.9°C  18.9°C  1015.2 hPa  49%  6.0 km/h   11.0 km/h  0%  --  16.1km  33%  Partly Cloudy 
 17/06/2019 - 23:00  18.3°C  18.3°C  1015.6 hPa  55%  5.9 km/h   9.4 km/h  1%  0.01 mm/h  16.1km  36%  Partly Cloudy 
 18/06/2019 - 00:00  17.9°C  17.9°C  1015.6 hPa  60%  6.0 km/h   8.9 km/h  0%  --  16.1km  27%  Partly Cloudy 
 18/06/2019 - 01:00  17.1°C  17.1°C  1015.4 hPa  64%  5.4 km/h   8.5 km/h  0%  --  16.1km  42%  Partly Cloudy 
 18/06/2019 - 02:00  16.4°C  16.4°C  1015.2 hPa  66%  5.3 km/h   8.1 km/h  0%  --  16.1km  65%  Mostly Cloudy 
 18/06/2019 - 03:00  15.5°C  15.5°C  1015.2 hPa  70%  5.0 km/h   8.0 km/h  0%  --  16.1km  70%  Mostly Cloudy 
 18/06/2019 - 04:00  14.7°C  14.7°C  1015.1 hPa  72%  4.0 km/h   5.8 km/h  1%  0.02 mm/h  16.1km  73%  Mostly Cloudy 
 18/06/2019 - 05:00  14.2°C  14.2°C  1015.1 hPa  75%  3.6 km/h   4.6 km/h  1%  0.01 mm/h  16.1km  79%  Mostly Cloudy 
 18/06/2019 - 06:00  14.6°C  14.6°C  1015.2 hPa  74%  3.5 km/h   4.9 km/h  1%  0.01 mm/h  16.1km  71%  Mostly Cloudy 
 18/06/2019 - 07:00  16.1°C  16.1°C  1015.4 hPa  70%  3.0 km/h   3.7 km/h  1%  0.01 mm/h  16.1km  59%  Mostly Cloudy 
 18/06/2019 - 08:00  17.7°C  17.7°C  1015.5 hPa  65%  2.9 km/h   4.7 km/h  0%  --  16.1km  59%  Mostly Cloudy 
 18/06/2019 - 09:00  19.5°C  19.5°C  1015.3 hPa  58%  3.4 km/h   5.3 km/h  1%  0.02 mm/h  16.1km  54%  Mostly Cloudy 
 18/06/2019 - 10:00  20.7°C  20.7°C  1014.9 hPa  57%  4.0 km/h   7.6 km/h  0%  --  16.1km  65%  Mostly Cloudy 
 18/06/2019 - 11:00  22.2°C  22.2°C  1014.5 hPa  52%  4.5 km/h   9.2 km/h  0%  --  16.1km  32%  Partly Cloudy 
 18/06/2019 - 12:00  23.3°C  23.3°C  1013.9 hPa  48%  5.1 km/h   10.4 km/h  0%  --  16.1km  32%  Partly Cloudy 
 18/06/2019 - 13:00  23.7°C  23.7°C  1013.3 hPa  45%  5.8 km/h   11.4 km/h  0%  --  16.1km  33%  Partly Cloudy 
 18/06/2019 - 14:00  24.2°C  24.2°C  1012.7 hPa  43%  6.5 km/h   12.2 km/h  0%  --  16.1km  34%  Partly Cloudy 
 18/06/2019 - 15:00  24.7°C  24.7°C  1012.3 hPa  42%  6.5 km/h   12.9 km/h  0%  --  16.1km  27%  Partly Cloudy 
 18/06/2019 - 16:00  25.3°C  25.3°C  1011.9 hPa  41%  6.5 km/h   13.4 km/h  0%  --  16.1km  17%  Partly Cloudy 
 18/06/2019 - 17:00  25.6°C  25.6°C  1011.6 hPa  42%  6.6 km/h   13.6 km/h  0%  --  16.1km  6%  Clear 
 18/06/2019 - 18:00  25.3°C  25.3°C  1011.3 hPa  45%  6.0 km/h   13.5 km/h  0%  --  16.1km  2%  Clear 
 18/06/2019 - 19:00  24.7°C  24.7°C  1011.2 hPa  50%  5.7 km/h   13.1 km/h  0%  --  16.1km  3%  Clear 
 18/06/2019 - 20:00  23.8°C  23.8°C  1011.1 hPa  55%  4.9 km/h   12.3 km/h  2%  0.01 mm/h  16.1km  4%  Clear 
 18/06/2019 - 21:00  22.8°C  22.8°C  1011.1 hPa  58%  4.9 km/h   10.8 km/h  1%  0.01 mm/h  16.1km  10%  Clear 
 18/06/2019 - 22:00  21.6°C  21.6°C  1011.1 hPa  60%  5.6 km/h   8.9 km/h  1%  0.01 mm/h  16.1km  18%  Partly Cloudy 
 18/06/2019 - 23:00  20.7°C  20.7°C  1010.9 hPa  62%  5.9 km/h   7.7 km/h  1%  0.01 mm/h  16.1km  48%  Partly Cloudy 
 19/06/2019 - 00:00  20.0°C  20.0°C  1010.7 hPa  63%  6.2 km/h   8.1 km/h  0%  --  16.1km  52%  Mostly Cloudy 
 19/06/2019 - 01:00  19.3°C  19.3°C  1010.3 hPa  64%  6.7 km/h   9.2 km/h  0%  --  16.1km  55%  Mostly Cloudy 
 19/06/2019 - 02:00  18.6°C  18.6°C  1009.9 hPa  65%  6.7 km/h   9.4 km/h  0%  --  16.1km  48%  Partly Cloudy 
 19/06/2019 - 03:00  17.6°C  17.6°C  1009.7 hPa  69%  6.0 km/h   7.5 km/h  0%  --  16.1km  59%  Mostly Cloudy 
 19/06/2019 - 04:00  16.6°C  16.6°C  1009.4 hPa  73%  5.0 km/h   5.0 km/h  0%  --  16.1km  53%  Mostly Cloudy 
 19/06/2019 - 05:00  16.0°C  16.0°C  1009.1 hPa  77%  4.7 km/h   4.8 km/h  2%  0.02 mm/h  16.1km  45%  Partly Cloudy 
 19/06/2019 - 06:00  16.4°C  16.4°C  1009.1 hPa  78%  4.8 km/h   4.9 km/h  0%  --  16.1km  49%  Partly Cloudy 
 19/06/2019 - 07:00  17.6°C  17.6°C  1009.2 hPa  76%  5.1 km/h   5.2 km/h  0%  --  16.1km  48%  Partly Cloudy 
 19/06/2019 - 08:00  19.0°C  19.0°C  1009.2 hPa  73%  6.4 km/h   6.5 km/h  0%  --  16.1km  56%  Mostly Cloudy 
 19/06/2019 - 09:00  20.2°C  20.2°C  1008.9 hPa  70%  7.0 km/h   9.4 km/h  0%  --  16.1km  55%  Mostly Cloudy 
 19/06/2019 - 10:00  21.4°C  21.4°C  1008.6 hPa  67%  7.9 km/h   13.1 km/h  0%  --  16.1km  58%  Mostly Cloudy 
 19/06/2019 - 11:00  22.4°C  22.4°C  1008.2 hPa  64%  9.0 km/h   15.9 km/h  0%  --  16.1km  62%  Mostly Cloudy 
 19/06/2019 - 12:00  23.3°C  23.3°C  1007.8 hPa  60%  10.5 km/h   17.1 km/h  0%  --  16.1km  74%  Mostly Cloudy 
 19/06/2019 - 13:00  23.7°C  23.7°C  1007.3 hPa  58%  10.7 km/h   17.2 km/h  3%  0.03 mm/h  16.1km  68%  Mostly Cloudy 
 19/06/2019 - 14:00  24.7°C  24.7°C  1006.7 hPa  54%  11.4 km/h   17.0 km/h  3%  0.03 mm/h  16.1km  65%  Mostly Cloudy 
 19/06/2019 - 15:00  25.5°C  25.5°C  1006.3 hPa  52%  11.7 km/h   16.2 km/h  3%  0.02 mm/h  16.1km  63%  Mostly Cloudy 
 19/06/2019 - 16:00  26.1°C  26.1°C  1005.7 hPa  50%  11.8 km/h   14.9 km/h  4%  0.08 mm/h  16.1km  67%  Mostly Cloudy 
 19/06/2019 - 17:00  26.0°C  26.0°C  1005.4 hPa  51%  10.9 km/h   13.7 km/h  8%  0.16 mm/h  16.1km  66%  Mostly Cloudy 
 19/06/2019 - 18:00  25.5°C  25.5°C  1005.3 hPa  54%  9.9 km/h   12.7 km/h  9%  0.16 mm/h  16.1km  58%  Mostly Cloudy 
 19/06/2019 - 19:00  24.4°C  24.4°C  1005.4 hPa  59%  8.3 km/h   11.8 km/h  11%  0.17 mm/h  16.1km  53%  Mostly Cloudy 
 19/06/2019 - 20:00  23.3°C  23.3°C  1005.5 hPa  64%  6.6 km/h   10.7 km/h  11%  0.14 mm/h  16.1km  53%  Mostly Cloudy 
Test

 

Past weather and reports

Past weatherFind in this section the past weather conditions, weather archive, graphics, reports and statistics.

Current conditions

Current weather condition for MontrealAll you need to know about the current weather conditions for Montreal. Weather data is updated every 10 minutes.

Weather forecast

Current Montreal weatherSince 2004, celinium.com website has provided accurate weather forecast for Montreal's island.